Impacts TAF Board INFO
FOR SITUATIONAL AWARENESS. NOT TO BE USED FOR FLIGHT PLANNING PURPOSES.
IDs:

KPHL - Philadelphia Intl, PA, US

Issued at 2340 UTC 30 Apr 2017
Updated at 0023 UTC 01 May 2017
Potential Impact None Slight Moderate High
Time2354Z 01/01Z 01/02Z 01/03Z 01/04Z 01/05Z 01/06Z 01/07Z 01/08Z 01/09Z 01/10Z 01/11Z 01/12Z 01/13Z>>
Type OBS PRVL PRVL PRVL PRVL PRVL PRVL PRVL PRVL PRVL PRVL PRVL PRVL PRVL
VIS 10 >6 >6 >6 >6 >6 3 3 0.5 0.5 0.5 0.5 5 5
CIG 15 15 15 15 15 15 7 7 5 5 5 5 20 20
Cover OVC OVC OVC OVC OVC OVC OVC OVC OVC OVC OVC OVC OVC OVC
FltCat MVFR MVFR MVFR MVFR MVFR MVFR IFR IFR LIFR LIFR LIFR LIFR MVFR MVFR
WX -- -- -- -- -- -- BR BR FG FG FG FG BR BR
WDir 70 80 80 80 80 80 90 90 VRB VRB VRB VRB 190 190
WSpd 12 9 9 9 9 9 4 4 3 3 3 3 6 6
WGst -- -- -- -- -- -- -- -- -- -- -- -- -- --

Raw TAF
KPHL 302340Z 0100/0206 08009KT P6SM OVC015
  FM010600 09004KT 3SM BR OVC007
  FM010800 VRB03KT 1/2SM FG OVC005
  FM011200 19006KT 5SM BR BKN020 OVC250
  FM011500 23012G20KT P6SM BKN025
  FM011700 21016G25KT P6SM BKN035


Raw METAR
KPHL 302354Z 07012KT 10SM OVC015 13/09 A3013 RMK SLP201 T01330089 10239 20133 50006
KPHL 302323Z 08016KT 10SM BKN020 OVC026 14/09 A3014 RMK AO2 T01390089
KPHL 302254Z 08014KT 10SM OVC024 16/09 A3015 RMK AO2 SLP208 T01560094
KPHL 302221Z 08015KT 10SM OVC029 17/10 A3013 RMK AO2 T01720100
KPHL 302154Z 10013KT 10SM OVC032 19/10 A3013 RMK AO2 SLP202 T01890100

METAR Board
Radar Display
Forecast Discussion

FOR SITUATIONAL AWARENESS. NOT TO BE USED FOR FLIGHT PLANNING PURPOSES.

Page loaded:  00:23 UTC  |   05:23 PM Pacific  |   06:23 PM Mountain  |   07:23 PM Central  |   08:23 PM Eastern

 

ADVISORIES

FORECASTS

FORECASTS

OBSERVATIONS

USER TOOLS

ABOUT US